sensor_id;sensor_type;location;lat;lon;timestamp;pressure;altitude;pressure_sealevel;temperature;humidity
40708;BME280;26392;42.696;23.350;2023-04-09T00:01:08;95492.56;;;7.50;100.00
40708;BME280;26392;42.696;23.350;2023-04-09T00:03:34;95506.53;;;7.65;100.00
40708;BME280;26392;42.696;23.350;2023-04-09T00:06:00;95512.91;;;7.71;100.00
40708;BME280;26392;42.696;23.350;2023-04-09T00:08:25;95508.31;;;7.71;100.00
40708;BME280;26392;42.696;23.350;2023-04-09T00:10:52;95521.19;;;7.76;100.00
40708;BME280;26392;42.696;23.350;2023-04-09T00:13:18;95524.13;;;7.74;100.00
40708;BME280;26392;42.696;23.350;2023-04-09T00:15:45;95519.28;;;7.76;100.00
40708;BME280;26392;42.696;23.350;2023-04-09T00:18:10;95520.81;;;7.72;100.00
40708;BME280;26392;42.696;23.350;2023-04-09T00:20:36;95520.44;;;7.69;100.00
40708;BME280;26392;42.696;23.350;2023-04-09T00:23:02;95519.47;;;7.63;100.00
40708;BME280;26392;42.696;23.350;2023-04-09T00:25:27;95521.38;;;7.62;100.00
40708;BME280;26392;42.696;23.350;2023-04-09T00:27:53;95520.78;;;7.60;100.00
40708;BME280;26392;42.696;23.350;2023-04-09T00:30:19;95517.09;;;7.55;100.00
40708;BME280;26392;42.696;23.350;2023-04-09T00:32:45;95504.22;;;7.50;100.00
40708;BME280;26392;42.696;23.350;2023-04-09T00:35:11;95525.38;;;7.60;100.00
40708;BME280;26392;42.696;23.350;2023-04-09T00:37:36;95518.03;;;7.49;100.00
40708;BME280;26392;42.696;23.350;2023-04-09T00:40:02;95519.53;;;7.45;100.00
40708;BME280;26392;42.696;23.350;2023-04-09T00:42:32;95520.75;;;7.49;100.00
40708;BME280;26392;42.696;23.350;2023-04-09T00:44:58;95521.78;;;7.48;100.00
40708;BME280;26392;42.696;23.350;2023-04-09T00:47:24;95520.00;;;7.42;100.00
40708;BME280;26392;42.696;23.350;2023-04-09T00:49:51;95524.59;;;7.41;100.00
40708;BME280;26392;42.696;23.350;2023-04-09T00:52:16;95501.47;;;7.38;100.00
40708;BME280;26392;42.696;23.350;2023-04-09T00:54:42;95515.66;;;7.40;100.00
40708;BME280;26392;42.696;23.350;2023-04-09T00:57:07;95514.56;;;7.42;100.00
40708;BME280;26392;42.696;23.350;2023-04-09T00:59:33;95511.50;;;7.38;100.00
40708;BME280;26392;42.696;23.350;2023-04-09T01:01:58;95515.53;;;7.47;100.00
40708;BME280;26392;42.696;23.350;2023-04-09T01:04:24;95508.47;;;7.46;100.00
40708;BME280;26392;42.696;23.350;2023-04-09T01:06:52;95521.47;;;7.56;100.00
40708;BME280;26392;42.696;23.350;2023-04-09T01:09:40;95520.63;;;7.55;100.00
40708;BME280;26392;42.696;23.350;2023-04-09T01:14:53;95530.13;;;7.65;100.00
40708;BME280;26392;42.696;23.350;2023-04-09T01:17:28;95520.44;;;7.69;100.00
40708;BME280;26392;42.696;23.350;2023-04-09T01:22:48;95525.41;;;7.72;100.00
40708;BME280;26392;42.696;23.350;2023-04-09T01:25:32;95517.72;;;7.69;100.00
40708;BME280;26392;42.696;23.350;2023-04-09T01:30:40;95524.72;;;7.76;100.00
40708;BME280;26392;42.696;23.350;2023-04-09T01:33:08;95524.84;;;7.81;100.00
40708;BME280;26392;42.696;23.350;2023-04-09T01:35:35;95525.44;;;7.83;100.00
40708;BME280;26392;42.696;23.350;2023-04-09T01:38:01;95519.44;;;7.81;100.00
40708;BME280;26392;42.696;23.350;2023-04-09T01:40:28;95524.38;;;7.84;100.00
40708;BME280;26392;42.696;23.350;2023-04-09T01:42:54;95527.66;;;7.87;100.00
40708;BME280;26392;42.696;23.350;2023-04-09T01:45:21;95530.97;;;7.77;100.00
40708;BME280;26392;42.696;23.350;2023-04-09T01:47:46;95518.41;;;7.64;100.00
40708;BME280;26392;42.696;23.350;2023-04-09T01:50:12;95528.81;;;7.67;100.00
40708;BME280;26392;42.696;23.350;2023-04-09T01:52:38;95532.72;;;7.71;100.00
40708;BME280;26392;42.696;23.350;2023-04-09T01:55:04;95534.59;;;7.71;100.00
40708;BME280;26392;42.696;23.350;2023-04-09T01:57:29;95529.41;;;7.69;100.00
40708;BME280;26392;42.696;23.350;2023-04-09T01:59:55;95522.47;;;7.73;100.00
40708;BME280;26392;42.696;23.350;2023-04-09T02:02:32;95526.97;;;7.79;100.00
40708;BME280;26392;42.696;23.350;2023-04-09T02:05:02;95526.59;;;7.76;100.00
40708;BME280;26392;42.696;23.350;2023-04-09T02:07:37;95522.00;;;7.76;100.00
40708;BME280;26392;42.696;23.350;2023-04-09T02:10:05;95514.91;;;7.75;100.00
40708;BME280;26392;42.696;23.350;2023-04-09T02:12:32;95498.13;;;7.55;100.00
40708;BME280;26392;42.696;23.350;2023-04-09T02:15:00;95532.44;;;7.61;100.00
40708;BME280;26392;42.696;23.350;2023-04-09T02:17:27;95524.63;;;7.53;100.00
40708;BME280;26392;42.696;23.350;2023-04-09T02:19:52;95531.94;;;7.52;100.00
40708;BME280;26392;42.696;23.350;2023-04-09T02:22:18;95527.94;;;7.55;100.00
40708;BME280;26392;42.696;23.350;2023-04-09T02:24:45;95514.25;;;7.50;100.00
40708;BME280;26392;42.696;23.350;2023-04-09T02:27:10;95525.81;;;7.45;100.00
40708;BME280;26392;42.696;23.350;2023-04-09T02:29:37;95513.28;;;7.44;100.00
40708;BME280;26392;42.696;23.350;2023-04-09T02:32:02;95516.94;;;7.38;100.00
40708;BME280;26392;42.696;23.350;2023-04-09T02:34:28;95527.25;;;7.29;100.00
40708;BME280;26392;42.696;23.350;2023-04-09T02:36:53;95526.19;;;7.30;100.00
40708;BME280;26392;42.696;23.350;2023-04-09T02:39:18;95525.69;;;7.22;100.00
40708;BME280;26392;42.696;23.350;2023-04-09T02:41:44;95524.25;;;7.19;100.00
40708;BME280;26392;42.696;23.350;2023-04-09T02:44:09;95524.66;;;7.23;100.00
40708;BME280;26392;42.696;23.350;2023-04-09T02:46:35;95527.44;;;7.16;100.00
40708;BME280;26392;42.696;23.350;2023-04-09T02:49:00;95527.03;;;7.01;100.00
40708;BME280;26392;42.696;23.350;2023-04-09T02:51:26;95528.50;;;6.97;100.00
40708;BME280;26392;42.696;23.350;2023-04-09T02:53:51;95523.09;;;6.97;100.00
40708;BME280;26392;42.696;23.350;2023-04-09T02:56:17;95521.91;;;6.92;100.00
40708;BME280;26392;42.696;23.350;2023-04-09T02:58:42;95518.59;;;6.90;100.00
40708;BME280;26392;42.696;23.350;2023-04-09T03:01:07;95521.50;;;6.89;100.00
40708;BME280;26392;42.696;23.350;2023-04-09T03:03:33;95516.44;;;6.81;100.00
40708;BME280;26392;42.696;23.350;2023-04-09T03:05:58;95518.53;;;6.79;100.00
40708;BME280;26392;42.696;23.350;2023-04-09T03:08:24;95517.09;;;6.76;100.00
40708;BME280;26392;42.696;23.350;2023-04-09T03:10:49;95518.47;;;6.67;100.00
40708;BME280;26392;42.696;23.350;2023-04-09T03:13:15;95516.78;;;6.66;100.00
40708;BME280;26392;42.696;23.350;2023-04-09T03:15:40;95519.28;;;6.67;100.00
40708;BME280;26392;42.696;23.350;2023-04-09T03:18:05;95523.47;;;6.63;100.00
40708;BME280;26392;42.696;23.350;2023-04-09T03:20:31;95513.56;;;6.57;100.00
40708;BME280;26392;42.696;23.350;2023-04-09T03:22:56;95510.69;;;6.52;100.00
40708;BME280;26392;42.696;23.350;2023-04-09T03:25:22;95518.28;;;6.43;100.00
40708;BME280;26392;42.696;23.350;2023-04-09T03:27:47;95515.81;;;6.42;100.00
40708;BME280;26392;42.696;23.350;2023-04-09T03:30:13;95526.41;;;6.43;100.00
40708;BME280;26392;42.696;23.350;2023-04-09T03:32:38;95510.00;;;6.38;100.00
40708;BME280;26392;42.696;23.350;2023-04-09T03:35:04;95519.84;;;6.33;100.00
40708;BME280;26392;42.696;23.350;2023-04-09T03:37:29;95524.06;;;6.28;100.00
40708;BME280;26392;42.696;23.350;2023-04-09T03:39:55;95516.38;;;6.25;100.00
40708;BME280;26392;42.696;23.350;2023-04-09T03:42:20;95520.38;;;6.23;100.00
40708;BME280;26392;42.696;23.350;2023-04-09T03:44:46;95520.09;;;6.31;100.00
40708;BME280;26392;42.696;23.350;2023-04-09T03:47:11;95517.38;;;6.31;100.00
40708;BME280;26392;42.696;23.350;2023-04-09T03:49:36;95511.34;;;6.29;100.00
40708;BME280;26392;42.696;23.350;2023-04-09T03:52:02;95517.81;;;6.28;100.00
40708;BME280;26392;42.696;23.350;2023-04-09T03:54:28;95528.84;;;6.26;100.00
40708;BME280;26392;42.696;23.350;2023-04-09T03:56:54;95526.59;;;6.23;100.00
40708;BME280;26392;42.696;23.350;2023-04-09T03:59:21;95534.09;;;6.21;100.00
40708;BME280;26392;42.696;23.350;2023-04-09T04:01:47;95540.94;;;6.24;100.00
40708;BME280;26392;42.696;23.350;2023-04-09T04:04:12;95530.09;;;6.31;100.00
40708;BME280;26392;42.696;23.350;2023-04-09T04:06:38;95530.66;;;6.33;100.00
40708;BME280;26392;42.696;23.350;2023-04-09T04:09:03;95532.34;;;6.34;100.00
40708;BME280;26392;42.696;23.350;2023-04-09T04:11:29;95539.84;;;6.32;100.00
40708;BME280;26392;42.696;23.350;2023-04-09T04:13:55;95538.19;;;6.31;100.00
40708;BME280;26392;42.696;23.350;2023-04-09T04:16:21;95530.56;;;6.21;100.00
40708;BME280;26392;42.696;23.350;2023-04-09T04:18:46;95529.69;;;6.27;100.00
40708;BME280;26392;42.696;23.350;2023-04-09T04:21:15;95539.63;;;6.33;100.00
40708;BME280;26392;42.696;23.350;2023-04-09T04:23:41;95542.28;;;6.40;100.00
40708;BME280;26392;42.696;23.350;2023-04-09T04:26:07;95547.47;;;6.41;100.00
40708;BME280;26392;42.696;23.350;2023-04-09T04:28:36;95541.53;;;6.51;100.00
40708;BME280;26392;42.696;23.350;2023-04-09T04:31:06;95546.50;;;6.54;100.00
40708;BME280;26392;42.696;23.350;2023-04-09T04:33:32;95542.06;;;6.60;100.00
40708;BME280;26392;42.696;23.350;2023-04-09T04:36:13;95534.19;;;6.58;100.00
40708;BME280;26392;42.696;23.350;2023-04-09T04:38:39;95539.22;;;6.73;100.00
40708;BME280;26392;42.696;23.350;2023-04-09T04:41:09;95545.81;;;6.77;100.00
40708;BME280;26392;42.696;23.350;2023-04-09T04:43:35;95546.88;;;6.76;100.00
40708;BME280;26392;42.696;23.350;2023-04-09T04:46:00;95546.59;;;6.84;100.00
40708;BME280;26392;42.696;23.350;2023-04-09T04:48:27;95546.34;;;6.86;100.00
40708;BME280;26392;42.696;23.350;2023-04-09T04:50:57;95551.56;;;6.87;100.00
40708;BME280;26392;42.696;23.350;2023-04-09T04:53:22;95546.44;;;6.79;100.00
40708;BME280;26392;42.696;23.350;2023-04-09T04:55:48;95553.66;;;6.85;100.00
40708;BME280;26392;42.696;23.350;2023-04-09T04:58:13;95550.88;;;6.92;100.00
40708;BME280;26392;42.696;23.350;2023-04-09T05:00:39;95544.75;;;6.97;100.00
40708;BME280;26392;42.696;23.350;2023-04-09T05:03:04;95550.13;;;7.03;100.00
40708;BME280;26392;42.696;23.350;2023-04-09T05:05:30;95554.69;;;7.21;100.00
40708;BME280;26392;42.696;23.350;2023-04-09T05:07:55;95537.13;;;7.24;100.00
40708;BME280;26392;42.696;23.350;2023-04-09T05:10:21;95544.78;;;7.45;100.00
40708;BME280;26392;42.696;23.350;2023-04-09T05:12:46;95557.16;;;7.53;100.00
40708;BME280;26392;42.696;23.350;2023-04-09T05:15:11;95549.84;;;7.83;100.00
40708;BME280;26392;42.696;23.350;2023-04-09T05:17:37;95553.50;;;7.89;100.00
40708;BME280;26392;42.696;23.350;2023-04-09T05:20:02;95548.84;;;8.20;100.00
40708;BME280;26392;42.696;23.350;2023-04-09T05:22:28;95552.56;;;8.49;100.00
40708;BME280;26392;42.696;23.350;2023-04-09T05:24:53;95549.50;;;8.69;100.00
40708;BME280;26392;42.696;23.350;2023-04-09T05:27:19;95556.31;;;8.83;100.00
40708;BME280;26392;42.696;23.350;2023-04-09T05:29:46;95557.50;;;8.99;100.00
40708;BME280;26392;42.696;23.350;2023-04-09T05:32:12;95554.84;;;9.04;100.00
40708;BME280;26392;42.696;23.350;2023-04-09T05:34:37;95549.31;;;9.11;100.00
40708;BME280;26392;42.696;23.350;2023-04-09T05:37:02;95559.13;;;9.00;100.00
40708;BME280;26392;42.696;23.350;2023-04-09T05:39:28;95554.44;;;8.84;100.00
40708;BME280;26392;42.696;23.350;2023-04-09T05:41:53;95552.66;;;8.78;100.00
40708;BME280;26392;42.696;23.350;2023-04-09T05:44:18;95560.91;;;8.71;100.00
40708;BME280;26392;42.696;23.350;2023-04-09T05:46:44;95551.13;;;8.70;100.00
40708;BME280;26392;42.696;23.350;2023-04-09T05:49:09;95556.91;;;8.85;100.00
40708;BME280;26392;42.696;23.350;2023-04-09T05:51:34;95554.69;;;8.82;100.00
40708;BME280;26392;42.696;23.350;2023-04-09T05:54:01;95555.72;;;9.05;100.00
40708;BME280;26392;42.696;23.350;2023-04-09T05:56:26;95563.44;;;9.25;100.00
40708;BME280;26392;42.696;23.350;2023-04-09T05:58:52;95553.63;;;9.24;100.00
40708;BME280;26392;42.696;23.350;2023-04-09T06:01:18;95553.34;;;9.37;100.00
40708;BME280;26392;42.696;23.350;2023-04-09T06:03:43;95550.97;;;9.40;100.00
40708;BME280;26392;42.696;23.350;2023-04-09T06:06:09;95549.09;;;9.41;100.00
40708;BME280;26392;42.696;23.350;2023-04-09T06:08:35;95553.03;;;9.33;100.00
40708;BME280;26392;42.696;23.350;2023-04-09T06:11:00;95550.22;;;9.16;100.00
40708;BME280;26392;42.696;23.350;2023-04-09T06:13:26;95548.78;;;9.26;100.00
40708;BME280;26392;42.696;23.350;2023-04-09T06:15:51;95567.66;;;9.44;100.00
40708;BME280;26392;42.696;23.350;2023-04-09T06:18:16;95561.25;;;9.50;100.00
40708;BME280;26392;42.696;23.350;2023-04-09T06:20:42;95554.81;;;9.56;100.00
40708;BME280;26392;42.696;23.350;2023-04-09T06:23:07;95564.19;;;9.49;100.00
40708;BME280;26392;42.696;23.350;2023-04-09T06:25:34;95563.81;;;9.57;100.00
40708;BME280;26392;42.696;23.350;2023-04-09T06:28:01;95562.31;;;9.78;100.00
40708;BME280;26392;42.696;23.350;2023-04-09T06:30:27;95565.97;;;9.72;100.00
40708;BME280;26392;42.696;23.350;2023-04-09T06:32:53;95562.50;;;9.59;100.00
40708;BME280;26392;42.696;23.350;2023-04-09T06:35:18;95558.41;;;9.74;100.00
40708;BME280;26392;42.696;23.350;2023-04-09T06:37:43;95560.44;;;9.95;100.00
40708;BME280;26392;42.696;23.350;2023-04-09T06:40:09;95568.38;;;10.14;100.00
40708;BME280;26392;42.696;23.350;2023-04-09T06:42:35;95570.84;;;10.15;100.00
40708;BME280;26392;42.696;23.350;2023-04-09T06:45:00;95570.13;;;10.03;100.00
40708;BME280;26392;42.696;23.350;2023-04-09T06:47:26;95570.69;;;9.76;100.00
40708;BME280;26392;42.696;23.350;2023-04-09T06:49:51;95549.91;;;9.70;100.00
40708;BME280;26392;42.696;23.350;2023-04-09T06:52:16;95574.72;;;9.74;100.00
40708;BME280;26392;42.696;23.350;2023-04-09T06:54:42;95573.75;;;9.51;100.00
40708;BME280;26392;42.696;23.350;2023-04-09T06:57:07;95575.50;;;9.57;100.00
40708;BME280;26392;42.696;23.350;2023-04-09T06:59:33;95571.59;;;9.65;100.00
40708;BME280;26392;42.696;23.350;2023-04-09T07:01:59;95575.94;;;9.66;100.00
40708;BME280;26392;42.696;23.350;2023-04-09T07:04:24;95578.97;;;9.81;100.00
40708;BME280;26392;42.696;23.350;2023-04-09T07:06:50;95568.34;;;9.97;100.00
40708;BME280;26392;42.696;23.350;2023-04-09T07:09:17;95574.41;;;10.16;100.00
40708;BME280;26392;42.696;23.350;2023-04-09T07:11:42;95581.47;;;10.28;100.00
40708;BME280;26392;42.696;23.350;2023-04-09T07:14:08;95585.59;;;10.65;100.00
40708;BME280;26392;42.696;23.350;2023-04-09T07:16:33;95573.81;;;10.98;100.00
40708;BME280;26392;42.696;23.350;2023-04-09T07:18:58;95560.69;;;10.78;100.00
40708;BME280;26392;42.696;23.350;2023-04-09T07:21:24;95569.91;;;11.11;100.00
40708;BME280;26392;42.696;23.350;2023-04-09T07:23:50;95579.03;;;11.22;100.00
40708;BME280;26392;42.696;23.350;2023-04-09T07:26:16;95574.38;;;11.00;100.00
40708;BME280;26392;42.696;23.350;2023-04-09T07:28:41;95579.03;;;11.22;100.00
40708;BME280;26392;42.696;23.350;2023-04-09T07:31:07;95556.63;;;10.97;100.00
40708;BME280;26392;42.696;23.350;2023-04-09T07:33:32;95580.97;;;11.43;100.00
40708;BME280;26392;42.696;23.350;2023-04-09T07:35:58;95575.91;;;11.79;98.71
40708;BME280;26392;42.696;23.350;2023-04-09T07:38:23;95580.75;;;11.94;88.45
40708;BME280;26392;42.696;23.350;2023-04-09T07:40:49;95569.41;;;12.07;81.75
40708;BME280;26392;42.696;23.350;2023-04-09T07:43:14;95577.75;;;12.22;77.53
40708;BME280;26392;42.696;23.350;2023-04-09T07:45:40;95583.31;;;12.05;76.72
40708;BME280;26392;42.696;23.350;2023-04-09T07:48:06;95582.47;;;12.32;75.06
40708;BME280;26392;42.696;23.350;2023-04-09T07:50:33;95588.25;;;12.36;72.93
40708;BME280;26392;42.696;23.350;2023-04-09T07:52:58;95585.69;;;11.97;72.69
40708;BME280;26392;42.696;23.350;2023-04-09T07:55:24;95593.72;;;12.36;71.58
40708;BME280;26392;42.696;23.350;2023-04-09T07:57:50;95594.66;;;12.19;69.31
40708;BME280;26392;42.696;23.350;2023-04-09T08:00:16;95576.00;;;12.38;67.40
40708;BME280;26392;42.696;23.350;2023-04-09T08:02:42;95601.63;;;12.64;67.38
40708;BME280;26392;42.696;23.350;2023-04-09T08:05:08;95603.31;;;12.11;69.91
40708;BME280;26392;42.696;23.350;2023-04-09T08:07:33;95598.06;;;12.04;70.91
40708;BME280;26392;42.696;23.350;2023-04-09T08:09:59;95601.09;;;12.08;71.64
40708;BME280;26392;42.696;23.350;2023-04-09T08:12:25;95592.63;;;12.09;71.60
40708;BME280;26392;42.696;23.350;2023-04-09T08:14:50;95604.00;;;12.01;71.52
40708;BME280;26392;42.696;23.350;2023-04-09T08:17:15;95599.84;;;11.72;72.99
40708;BME280;26392;42.696;23.350;2023-04-09T08:19:41;95587.69;;;11.57;75.54
40708;BME280;26392;42.696;23.350;2023-04-09T08:22:06;95606.91;;;11.90;75.08
40708;BME280;26392;42.696;23.350;2023-04-09T08:24:32;95603.53;;;12.04;74.67
40708;BME280;26392;42.696;23.350;2023-04-09T08:26:57;95608.47;;;12.07;74.77
40708;BME280;26392;42.696;23.350;2023-04-09T08:29:22;95607.78;;;12.22;73.12
40708;BME280;26392;42.696;23.350;2023-04-09T08:31:48;95603.19;;;12.60;70.96
40708;BME280;26392;42.696;23.350;2023-04-09T08:34:13;95609.44;;;12.88;67.82
40708;BME280;26392;42.696;23.350;2023-04-09T08:36:44;95611.19;;;13.04;66.72
40708;BME280;26392;42.696;23.350;2023-04-09T08:39:10;95608.16;;;13.38;64.86
40708;BME280;26392;42.696;23.350;2023-04-09T08:41:41;95600.56;;;13.50;63.37
40708;BME280;26392;42.696;23.350;2023-04-09T08:44:08;95599.41;;;13.41;63.63
40708;BME280;26392;42.696;23.350;2023-04-09T08:46:35;95592.22;;;13.30;63.32
40708;BME280;26392;42.696;23.350;2023-04-09T08:49:01;95595.59;;;13.42;63.57
40708;BME280;26392;42.696;23.350;2023-04-09T08:51:26;95601.16;;;13.62;63.55
40708;BME280;26392;42.696;23.350;2023-04-09T08:53:58;95588.38;;;13.88;62.90
40708;BME280;26392;42.696;23.350;2023-04-09T08:56:24;95594.16;;;14.02;60.59
40708;BME280;26392;42.696;23.350;2023-04-09T08:58:51;95586.44;;;13.79;60.89
40708;BME280;26392;42.696;23.350;2023-04-09T09:01:28;95593.69;;;13.48;61.76
40708;BME280;26392;42.696;23.350;2023-04-09T09:04:05;95597.72;;;13.35;62.35
40708;BME280;26392;42.696;23.350;2023-04-09T09:06:35;95587.41;;;13.05;64.50
40708;BME280;26392;42.696;23.350;2023-04-09T09:09:02;95578.88;;;12.96;65.07
40708;BME280;26392;42.696;23.350;2023-04-09T09:11:28;95572.28;;;13.34;65.15
40708;BME280;26392;42.696;23.350;2023-04-09T09:14:15;95578.84;;;13.38;62.72
40708;BME280;26392;42.696;23.350;2023-04-09T09:16:43;95576.28;;;13.21;63.04
40708;BME280;26392;42.696;23.350;2023-04-09T09:19:27;95573.72;;;13.47;63.40
40708;BME280;26392;42.696;23.350;2023-04-09T09:22:04;95572.47;;;13.75;61.87
40708;BME280;26392;42.696;23.350;2023-04-09T09:24:30;95580.69;;;13.75;61.79
40708;BME280;26392;42.696;23.350;2023-04-09T09:26:59;95579.59;;;13.81;60.58
40708;BME280;26392;42.696;23.350;2023-04-09T09:29:26;95573.91;;;13.98;60.69
40708;BME280;26392;42.696;23.350;2023-04-09T09:31:54;95564.50;;;13.74;60.41
40708;BME280;26392;42.696;23.350;2023-04-09T09:34:21;95564.59;;;14.04;60.94
40708;BME280;26392;42.696;23.350;2023-04-09T09:36:47;95563.81;;;14.35;59.42
40708;BME280;26392;42.696;23.350;2023-04-09T09:39:13;95543.25;;;14.32;59.49
40708;BME280;26392;42.696;23.350;2023-04-09T09:41:42;95557.22;;;14.30;60.04
40708;BME280;26392;42.696;23.350;2023-04-09T09:44:09;95553.72;;;14.76;60.08
40708;BME280;26392;42.696;23.350;2023-04-09T09:46:37;95553.41;;;14.93;57.26
40708;BME280;26392;42.696;23.350;2023-04-09T09:49:03;95544.03;;;15.09;56.81
40708;BME280;26392;42.696;23.350;2023-04-09T09:51:31;95546.00;;;14.88;56.45
40708;BME280;26392;42.696;23.350;2023-04-09T09:53:57;95541.84;;;15.06;57.15
40708;BME280;26392;42.696;23.350;2023-04-09T09:56:24;95533.34;;;15.18;55.83
40708;BME280;26392;42.696;23.350;2023-04-09T09:59:09;95528.34;;;15.30;55.01
40708;BME280;26392;42.696;23.350;2023-04-09T10:01:37;95539.31;;;15.30;54.76
40708;BME280;26392;42.696;23.350;2023-04-09T10:04:05;95526.16;;;15.27;54.73
40708;BME280;26392;42.696;23.350;2023-04-09T10:06:34;95536.97;;;14.93;55.47
40708;BME280;26392;42.696;23.350;2023-04-09T10:09:03;95533.09;;;15.04;54.35
40708;BME280;26392;42.696;23.350;2023-04-09T10:11:34;95525.56;;;15.40;53.44
40708;BME280;26392;42.696;23.350;2023-04-09T10:14:01;95526.06;;;15.53;52.45
40708;BME280;26392;42.696;23.350;2023-04-09T10:16:26;95526.63;;;15.44;52.47
40708;BME280;26392;42.696;23.350;2023-04-09T10:18:56;95524.69;;;15.50;52.17
40708;BME280;26392;42.696;23.350;2023-04-09T10:23:51;95517.34;;;15.40;51.90
40708;BME280;26392;42.696;23.350;2023-04-09T10:26:18;95524.69;;;15.50;51.41
40708;BME280;26392;42.696;23.350;2023-04-09T10:28:44;95513.97;;;15.54;51.41
40708;BME280;26392;42.696;23.350;2023-04-09T10:31:10;95516.66;;;15.64;51.33
40708;BME280;26392;42.696;23.350;2023-04-09T10:33:36;95503.44;;;15.76;51.04
40708;BME280;26392;42.696;23.350;2023-04-09T10:36:04;95510.22;;;15.94;51.24
40708;BME280;26392;42.696;23.350;2023-04-09T10:38:38;95501.69;;;15.96;50.39
40708;BME280;26392;42.696;23.350;2023-04-09T10:41:15;95501.56;;;15.66;50.63
40708;BME280;26392;42.696;23.350;2023-04-09T10:43:46;95504.09;;;15.53;50.34
40708;BME280;26392;42.696;23.350;2023-04-09T10:46:34;95500.19;;;15.74;50.60
40708;BME280;26392;42.696;23.350;2023-04-09T10:51:37;95496.59;;;16.13;49.69
40708;BME280;26392;42.696;23.350;2023-04-09T10:54:04;95482.22;;;15.87;49.06
40708;BME280;26392;42.696;23.350;2023-04-09T10:56:30;95478.56;;;16.02;49.78
40708;BME280;26392;42.696;23.350;2023-04-09T10:58:55;95477.09;;;16.15;49.39
40708;BME280;26392;42.696;23.350;2023-04-09T11:01:21;95475.38;;;16.58;48.60
40708;BME280;26392;42.696;23.350;2023-04-09T11:04:07;95470.41;;;16.89;47.92
40708;BME280;26392;42.696;23.350;2023-04-09T11:06:35;95471.19;;;17.19;46.27
40708;BME280;26392;42.696;23.350;2023-04-09T11:09:02;95463.09;;;17.28;45.34
40708;BME280;26392;42.696;23.350;2023-04-09T11:11:28;95452.75;;;17.62;44.81
40708;BME280;26392;42.696;23.350;2023-04-09T11:13:58;95466.72;;;17.90;44.95
40708;BME280;26392;42.696;23.350;2023-04-09T11:16:28;95463.03;;;17.95;44.54
40708;BME280;26392;42.696;23.350;2023-04-09T11:18:53;95460.53;;;17.55;44.63
40708;BME280;26392;42.696;23.350;2023-04-09T11:21:20;95469.28;;;17.38;45.60
40708;BME280;26392;42.696;23.350;2023-04-09T11:23:52;95466.09;;;17.50;45.29
40708;BME280;26392;42.696;23.350;2023-04-09T11:26:22;95469.72;;;17.51;46.06
40708;BME280;26392;42.696;23.350;2023-04-09T11:28:48;95468.84;;;17.31;45.56
40708;BME280;26392;42.696;23.350;2023-04-09T11:31:13;95466.38;;;17.30;44.92
40708;BME280;26392;42.696;23.350;2023-04-09T11:33:39;95470.13;;;17.15;45.87
40708;BME280;26392;42.696;23.350;2023-04-09T11:36:04;95460.88;;;17.06;47.93
40708;BME280;26392;42.696;23.350;2023-04-09T11:38:30;95459.00;;;17.01;49.36
40708;BME280;26392;42.696;23.350;2023-04-09T11:40:56;95448.88;;;16.67;48.41
40708;BME280;26392;42.696;23.350;2023-04-09T11:43:23;95446.72;;;16.64;47.50
40708;BME280;26392;42.696;23.350;2023-04-09T11:45:49;95445.59;;;16.65;48.39
40708;BME280;26392;42.696;23.350;2023-04-09T11:48:15;95456.59;;;16.65;46.57
40708;BME280;26392;42.696;23.350;2023-04-09T11:50:42;95442.41;;;16.19;46.15
40708;BME280;26392;42.696;23.350;2023-04-09T11:53:18;95433.94;;;16.15;47.72
40708;BME280;26392;42.696;23.350;2023-04-09T11:55:46;95442.50;;;16.43;47.15
40708;BME280;26392;42.696;23.350;2023-04-09T11:58:12;95436.97;;;16.48;45.69
40708;BME280;26392;42.696;23.350;2023-04-09T12:00:39;95435.22;;;16.28;42.89
40708;BME280;26392;42.696;23.350;2023-04-09T12:03:05;95430.75;;;16.32;42.05
40708;BME280;26392;42.696;23.350;2023-04-09T12:05:32;95426.03;;;16.38;41.20
40708;BME280;26392;42.696;23.350;2023-04-09T12:08:00;95432.91;;;16.40;41.36
40708;BME280;26392;42.696;23.350;2023-04-09T12:10:27;95429.38;;;16.34;41.14
40708;BME280;26392;42.696;23.350;2023-04-09T12:12:53;95424.22;;;16.57;40.84
40708;BME280;26392;42.696;23.350;2023-04-09T12:15:22;95423.88;;;16.64;40.83
40708;BME280;26392;42.696;23.350;2023-04-09T12:17:53;95409.91;;;16.55;40.88
40708;BME280;26392;42.696;23.350;2023-04-09T12:20:30;95424.06;;;16.72;40.03
40708;BME280;26392;42.696;23.350;2023-04-09T12:22:56;95423.06;;;16.92;39.71
40708;BME280;26392;42.696;23.350;2023-04-09T12:25:22;95425.50;;;16.94;39.48
40708;BME280;26392;42.696;23.350;2023-04-09T12:27:48;95419.28;;;16.83;40.05
40708;BME280;26392;42.696;23.350;2023-04-09T12:30:13;95426.63;;;16.93;40.86
40708;BME280;26392;42.696;23.350;2023-04-09T12:32:39;95422.81;;;16.89;42.27
40708;BME280;26392;42.696;23.350;2023-04-09T12:35:04;95419.53;;;16.87;42.20
40708;BME280;26392;42.696;23.350;2023-04-09T12:37:30;95421.13;;;16.64;42.09
40708;BME280;26392;42.696;23.350;2023-04-09T12:39:55;95416.41;;;16.69;42.36
40708;BME280;26392;42.696;23.350;2023-04-09T12:42:21;95419.19;;;16.64;42.61
40708;BME280;26392;42.696;23.350;2023-04-09T12:44:46;95415.06;;;16.67;42.92
40708;BME280;26392;42.696;23.350;2023-04-09T12:47:12;95393.38;;;16.60;41.60
40708;BME280;26392;42.696;23.350;2023-04-09T12:49:37;95405.31;;;16.50;41.96
40708;BME280;26392;42.696;23.350;2023-04-09T12:52:03;95416.34;;;16.16;42.44
40708;BME280;26392;42.696;23.350;2023-04-09T12:54:28;95413.94;;;16.04;42.77
40708;BME280;26392;42.696;23.350;2023-04-09T12:56:53;95407.41;;;16.00;43.10
40708;BME280;26392;42.696;23.350;2023-04-09T12:59:19;95389.41;;;15.84;43.67
40708;BME280;26392;42.696;23.350;2023-04-09T13:01:44;95403.72;;;15.81;43.34